Time;durP1;ratioP1;P1;durP2;ratioP2;P2;SDS_P1;SDS_P2;PMS_P1;PMS_P2;Temp;Humidity;BMP_temperature;BMP_pressure;BME280_temperature;BME280_humidity;BME280_pressure;Samples;Min_cycle;Max_cycle;Signal;HPM_P1;HPM_P2
2022/08/20 00:00:19;;;;;;;;;;;18.00;96.60;;;;;;5006255;28;20012;-81
2022/08/20 00:02:47;;;;;;;;;;;18.00;96.60;;;;;;5004602;28;20347;-82
2022/08/20 00:05:14;;;;;;;;;;;18.00;96.50;;;;;;5008875;28;20284;-82
2022/08/20 00:07:41;;;;;;;;;;;18.00;96.60;;;;;;4988719;28;19926;-81
2022/08/20 00:10:10;;;;;;;;;;;18.00;96.50;;;;;;4982430;28;19926;-81
2022/08/20 00:12:37;;;;;;;;;;;18.00;96.50;;;;;;5010486;28;20311;-81
2022/08/20 00:15:05;;;;;;;;;;;18.00;96.50;;;;;;5003844;28;20316;-80
2022/08/20 00:17:33;;;;;;;;;;;18.00;96.60;;;;;;5005160;28;20337;-81
2022/08/20 00:20:00;;;;;;;;;;;18.00;96.50;;;;;;5002272;28;19992;-82
2022/08/20 00:22:27;;;;;;;;;;;18.00;96.50;;;;;;5005707;28;19934;-81
2022/08/20 00:24:54;;;;;;;;;;;17.90;96.50;;;;;;4988816;28;20032;-81
2022/08/20 00:27:22;;;;;;;;;;;18.00;96.50;;;;;;5003785;28;19925;-82
2022/08/20 00:29:49;;;;;;;;;;;18.00;96.50;;;;;;5009687;28;20408;-81
2022/08/20 00:32:15;;;;;;;;;;;17.90;96.50;;;;;;5009479;28;19980;-81
2022/08/20 00:34:42;;;;;;;;;;;17.90;96.50;;;;;;4997549;28;20145;-81
2022/08/20 00:37:09;;;;;;;;;;;17.90;96.50;;;;;;5010296;28;19957;-80
2022/08/20 00:39:36;;;;;;;;;;;17.90;96.50;;;;;;4992609;28;19948;-80
2022/08/20 00:42:04;;;;;;;;;;;17.90;96.50;;;;;;4995924;28;19933;-81
2022/08/20 00:44:32;;;;;;;;;;;17.90;96.50;;;;;;5009002;28;19925;-81
2022/08/20 00:46:59;;;;;;;;;;;17.90;96.50;;;;;;4996803;28;19925;-81
2022/08/20 00:49:27;;;;;;;;;;;17.90;96.50;;;;;;4990316;28;19980;-80
2022/08/20 00:51:57;;;;;;;;;;;17.90;96.50;;;;;;5011294;28;19933;-81
2022/08/20 00:54:26;;;;;;;;;;;17.90;96.50;;;;;;4999447;28;19960;-81
2022/08/20 00:56:56;;;;;;;;;;;17.90;96.50;;;;;;5013402;28;19932;-81
2022/08/20 00:59:26;;;;;;;;;;;17.90;96.50;;;;;;4989196;28;19926;-81
2022/08/20 01:01:54;;;;;;;;;;;17.90;96.50;;;;;;5006455;28;19925;-81
2022/08/20 01:04:21;;;;;;;;;;;17.90;96.60;;;;;;4999434;28;20410;-81
2022/08/20 01:06:48;;;;;;;;;;;17.90;96.60;;;;;;4989354;28;20371;-81
2022/08/20 01:09:14;;;;;;;;;;;17.90;96.70;;;;;;5002132;28;20332;-81
2022/08/20 01:11:41;;;;;;;;;;;17.90;96.80;;;;;;4989241;28;19980;-81
2022/08/20 01:14:22;;;;;;;;;;;17.90;96.90;;;;;;5013552;28;19926;-80
2022/08/20 01:16:50;;;;;;;;;;;17.80;97.00;;;;;;5012726;28;19925;-81
2022/08/20 01:19:21;;;;;;;;;;;17.90;97.10;;;;;;4985903;28;20013;-81
2022/08/20 01:21:48;;;;;;;;;;;17.90;97.40;;;;;;5007695;28;20343;-81
2022/08/20 01:24:16;;;;;;;;;;;17.80;97.40;;;;;;5008669;28;20368;-81
2022/08/20 01:26:46;;;;;;;;;;;17.80;97.60;;;;;;4990446;28;19922;-81
2022/08/20 01:29:14;;;;;;;;;;;17.90;97.80;;;;;;4989422;28;19933;-81
2022/08/20 01:31:41;;;;;;;;;;;17.90;97.90;;;;;;4999950;28;19929;-81
2022/08/20 01:34:10;;;;;;;;;;;17.80;97.80;;;;;;4989779;28;19979;-81
2022/08/20 01:36:38;;;;;;;;;;;17.90;98.00;;;;;;5000302;28;19933;-81
2022/08/20 01:39:06;;;;;;;;;;;17.90;98.10;;;;;;5003598;28;19972;-81
2022/08/20 01:41:48;;;;;;;;;;;17.80;98.10;;;;;;5007234;28;19926;-80
2022/08/20 01:44:16;;;;;;;;;;;17.80;98.20;;;;;;5003300;28;19992;-81
2022/08/20 01:46:44;;;;;;;;;;;17.80;98.10;;;;;;5001935;28;20354;-81
2022/08/20 01:49:13;;;;;;;;;;;17.90;98.20;;;;;;5004576;28;19925;-81
2022/08/20 01:51:41;;;;;;;;;;;17.90;98.30;;;;;;5004304;28;20348;-81
2022/08/20 01:54:07;;;;;;;;;;;17.80;98.20;;;;;;5010770;28;19930;-81
2022/08/20 01:56:35;;;;;;;;;;;17.80;98.20;;;;;;4984025;28;20632;-80
2022/08/20 01:59:05;;;;;;;;;;;17.90;98.30;;;;;;5007388;28;19932;-81
2022/08/20 02:01:35;;;;;;;;;;;17.90;98.20;;;;;;5002415;28;20031;-81
2022/08/20 02:04:04;;;;;;;;;;;17.80;98.10;;;;;;5007092;28;19987;-81
2022/08/20 02:06:35;;;;;;;;;;;17.80;98.00;;;;;;4984204;28;19929;-81
2022/08/20 02:09:02;;;;;;;;;;;17.80;97.80;;;;;;5008168;28;19933;-82
2022/08/20 02:11:32;;;;;;;;;;;17.80;98.10;;;;;;5002362;28;19925;-82
2022/08/20 02:13:59;;;;;;;;;;;17.80;97.90;;;;;;5004699;28;19932;-81
2022/08/20 02:16:38;;;;;;;;;;;17.80;98.10;;;;;;4987814;28;19930;-81
2022/08/20 02:19:11;;;;;;;;;;;17.80;98.20;;;;;;5004237;28;20186;-81
2022/08/20 02:21:39;;;;;;;;;;;17.80;98.20;;;;;;4995810;28;19925;-82
2022/08/20 02:24:06;;;;;;;;;;;17.80;98.30;;;;;;5006899;28;19926;-82
2022/08/20 02:26:36;;;;;;;;;;;17.80;98.40;;;;;;5004071;28;19932;-81
2022/08/20 02:29:04;;;;;;;;;;;17.80;98.40;;;;;;5005582;28;20274;-81
2022/08/20 02:31:31;;;;;;;;;;;17.80;98.50;;;;;;4999262;28;19938;-81
2022/08/20 02:33:58;;;;;;;;;;;17.80;98.40;;;;;;4999166;28;19934;-81
2022/08/20 02:36:26;;;;;;;;;;;17.80;98.40;;;;;;4997508;28;19925;-82
2022/08/20 02:38:53;;;;;;;;;;;17.80;98.40;;;;;;4987129;28;19929;-81
2022/08/20 02:41:20;;;;;;;;;;;17.80;98.40;;;;;;5008203;28;19980;-81
2022/08/20 02:43:48;;;;;;;;;;;17.80;98.50;;;;;;5005104;28;19926;-81
2022/08/20 02:46:17;;;;;;;;;;;17.80;98.50;;;;;;4990412;28;20012;-81
2022/08/20 02:48:44;;;;;;;;;;;17.80;98.50;;;;;;5007541;28;19933;-81
2022/08/20 02:51:11;;;;;;;;;;;17.70;98.50;;;;;;4999944;28;19929;-81
2022/08/20 02:53:40;;;;;;;;;;;17.70;98.40;;;;;;5012087;28;19933;-81
2022/08/20 02:56:07;;;;;;;;;;;17.70;98.40;;;;;;5005825;28;19925;-81
2022/08/20 02:58:34;;;;;;;;;;;17.70;98.40;;;;;;4989125;28;19949;-82
2022/08/20 03:01:02;;;;;;;;;;;17.70;98.50;;;;;;5013976;28;19930;-82
2022/08/20 03:03:29;;;;;;;;;;;17.70;98.60;;;;;;5012053;28;19925;-81
2022/08/20 03:05:58;;;;;;;;;;;17.70;98.60;;;;;;5007976;28;19948;-81
2022/08/20 03:08:25;;;;;;;;;;;17.70;98.50;;;;;;5004175;28;20414;-82
2022/08/20 03:10:53;;;;;;;;;;;17.70;98.60;;;;;;5011068;28;19949;-81
2022/08/20 03:13:21;;;;;;;;;;;17.70;98.60;;;;;;4999648;28;19929;-81
2022/08/20 03:15:49;;;;;;;;;;;17.70;98.50;;;;;;5008576;28;19926;-82
2022/08/20 03:18:21;;;;;;;;;;;17.70;98.60;;;;;;5007727;28;20274;-81
2022/08/20 03:20:49;;;;;;;;;;;17.70;98.50;;;;;;4988701;28;19933;-81
2022/08/20 03:23:16;;;;;;;;;;;17.60;98.50;;;;;;5004070;28;20355;-81
2022/08/20 03:25:44;;;;;;;;;;;17.60;98.50;;;;;;5011512;28;19975;-81
2022/08/20 03:28:13;;;;;;;;;;;17.60;98.60;;;;;;5007316;28;19984;-80
2022/08/20 03:30:40;;;;;;;;;;;17.60;98.60;;;;;;5002699;28;19980;-81
2022/08/20 03:33:07;;;;;;;;;;;17.60;98.60;;;;;;5010130;28;19986;-81
2022/08/20 03:35:34;;;;;;;;;;;17.60;98.70;;;;;;4992388;28;19925;-82
2022/08/20 03:38:01;;;;;;;;;;;17.60;98.80;;;;;;5006508;28;19976;-82
2022/08/20 03:40:30;;;;;;;;;;;17.60;98.80;;;;;;4994944;28;19933;-82
2022/08/20 03:42:57;;;;;;;;;;;17.60;98.80;;;;;;5011423;28;19929;-82
2022/08/20 03:45:25;;;;;;;;;;;17.60;98.80;;;;;;4992335;28;19997;-82
2022/08/20 03:47:53;;;;;;;;;;;17.60;98.90;;;;;;5004236;28;20344;-82
2022/08/20 03:50:22;;;;;;;;;;;17.50;98.80;;;;;;5007120;28;20419;-81
2022/08/20 03:52:49;;;;;;;;;;;17.60;98.80;;;;;;5005863;28;19933;-81
2022/08/20 03:55:15;;;;;;;;;;;17.50;98.90;;;;;;4992723;28;20332;-82
2022/08/20 03:57:44;;;;;;;;;;;17.50;98.90;;;;;;5002458;28;20532;-81
2022/08/20 04:00:12;;;;;;;;;;;17.50;99.00;;;;;;5012202;28;20356;-82
2022/08/20 04:02:40;;;;;;;;;;;17.50;99.00;;;;;;5004129;28;19934;-82
2022/08/20 04:05:07;;;;;;;;;;;17.50;99.10;;;;;;4993633;28;19949;-81
2022/08/20 04:07:36;;;;;;;;;;;17.50;99.00;;;;;;5007107;28;20109;-81
2022/08/20 04:10:05;;;;;;;;;;;17.50;99.00;;;;;;5007497;28;19941;-82
2022/08/20 04:12:32;;;;;;;;;;;17.50;99.00;;;;;;4987899;28;20396;-82
2022/08/20 04:14:59;;;;;;;;;;;17.50;98.90;;;;;;5004555;28;20024;-82
2022/08/20 04:17:26;;;;;;;;;;;17.50;98.90;;;;;;5007363;28;20142;-81
2022/08/20 04:19:54;;;;;;;;;;;17.50;98.70;;;;;;5007886;28;19925;-81
2022/08/20 04:22:21;;;;;;;;;;;17.50;98.70;;;;;;5002749;28;19979;-82
2022/08/20 04:24:49;;;;;;;;;;;17.50;98.50;;;;;;5005484;28;19925;-81
2022/08/20 04:27:16;;;;;;;;;;;17.50;98.50;;;;;;5007462;28;20380;-81
2022/08/20 04:29:43;;;;;;;;;;;17.50;98.40;;;;;;5006710;28;19995;-83
2022/08/20 04:32:11;;;;;;;;;;;17.50;98.30;;;;;;5009190;28;19948;-82
2022/08/20 04:34:38;;;;;;;;;;;17.50;98.30;;;;;;5003018;28;19930;-82
2022/08/20 04:37:06;;;;;;;;;;;17.50;98.40;;;;;;5006275;28;19935;-81
2022/08/20 04:39:33;;;;;;;;;;;17.50;98.40;;;;;;4982912;28;20388;-81
2022/08/20 04:41:59;;;;;;;;;;;17.40;98.40;;;;;;5001495;28;19930;-82
2022/08/20 04:44:26;;;;;;;;;;;17.40;98.50;;;;;;4995994;28;19926;-81
2022/08/20 04:46:53;;;;;;;;;;;17.40;98.50;;;;;;5005983;28;19960;-82
2022/08/20 04:49:25;;;;;;;;;;;17.40;98.40;;;;;;5003422;28;19925;-81
2022/08/20 04:51:53;;;;;;;;;;;17.40;98.30;;;;;;5004765;28;19929;-82
2022/08/20 04:54:21;;;;;;;;;;;17.40;98.40;;;;;;5001111;28;19925;-81
2022/08/20 04:56:48;;;;;;;;;;;17.40;98.30;;;;;;5007460;28;19926;-81
2022/08/20 04:59:15;;;;;;;;;;;17.40;98.40;;;;;;5006089;28;19925;-81
2022/08/20 05:01:42;;;;;;;;;;;17.30;98.30;;;;;;5009004;28;19972;-82
2022/08/20 05:04:09;;;;;;;;;;;17.40;98.40;;;;;;5002089;28;20396;-81
2022/08/20 05:06:36;;;;;;;;;;;17.40;98.40;;;;;;5004383;28;19930;-82
2022/08/20 05:09:03;;;;;;;;;;;17.40;98.40;;;;;;4994789;28;19933;-81
2022/08/20 05:11:32;;;;;;;;;;;17.40;98.40;;;;;;5006451;28;19936;-81
2022/08/20 05:13:58;;;;;;;;;;;17.40;98.40;;;;;;4996505;28;20408;-82
2022/08/20 05:16:25;;;;;;;;;;;17.30;98.30;;;;;;5004406;28;19930;-82
2022/08/20 05:18:52;;;;;;;;;;;17.30;98.30;;;;;;5008529;28;19979;-82
2022/08/20 05:21:19;;;;;;;;;;;17.30;98.30;;;;;;4996147;28;20288;-81
2022/08/20 05:23:46;;;;;;;;;;;17.30;98.20;;;;;;5000487;28;19926;-82
2022/08/20 05:26:14;;;;;;;;;;;17.40;98.20;;;;;;4992596;28;19976;-82
2022/08/20 05:28:44;;;;;;;;;;;17.30;98.20;;;;;;5003671;28;19980;-81
2022/08/20 05:31:11;;;;;;;;;;;17.30;98.20;;;;;;4999251;28;19932;-82
2022/08/20 05:33:38;;;;;;;;;;;17.30;98.40;;;;;;5002700;28;19925;-81
2022/08/20 05:36:06;;;;;;;;;;;17.30;98.50;;;;;;4987147;28;19930;-82
2022/08/20 05:38:33;;;;;;;;;;;17.30;98.70;;;;;;4997983;28;19965;-82
2022/08/20 05:41:00;;;;;;;;;;;17.30;98.70;;;;;;4986334;28;19925;-82
2022/08/20 05:43:27;;;;;;;;;;;17.30;98.80;;;;;;5004789;28;19932;-81
2022/08/20 05:45:57;;;;;;;;;;;17.30;98.90;;;;;;5003874;28;19938;-82
2022/08/20 05:48:25;;;;;;;;;;;17.30;98.90;;;;;;4999118;28;20339;-81
2022/08/20 05:50:54;;;;;;;;;;;17.30;98.90;;;;;;4985276;28;19957;-82
2022/08/20 05:53:22;;;;;;;;;;;17.20;98.90;;;;;;5004779;28;19926;-81
2022/08/20 05:55:49;;;;;;;;;;;17.30;99.00;;;;;;5006413;28;20430;-82
2022/08/20 05:58:17;;;;;;;;;;;17.30;99.00;;;;;;4999486;28;19930;-82
2022/08/20 06:00:44;;;;;;;;;;;17.30;99.00;;;;;;5004243;28;20029;-82
2022/08/20 06:05:57;;;;;;;;;;;17.20;99.00;;;;;;4999371;28;19941;-82
2022/08/20 06:08:24;;;;;;;;;;;17.30;99.30;;;;;;4985772;28;20178;-82
2022/08/20 06:10:50;;;;;;;;;;;17.30;99.00;;;;;;4988372;28;19926;-82
2022/08/20 06:13:17;;;;;;;;;;;17.30;99.10;;;;;;5003918;28;19995;-81
2022/08/20 06:15:44;;;;;;;;;;;17.30;99.10;;;;;;4994261;28;19926;-82
2022/08/20 06:18:13;;;;;;;;;;;17.30;99.10;;;;;;4998117;28;19942;-81
2022/08/20 06:20:40;;;;;;;;;;;17.30;99.10;;;;;;5002801;28;19926;-82
2022/08/20 06:23:07;;;;;;;;;;;17.30;99.10;;;;;;4990884;28;19926;-82
2022/08/20 06:25:34;;;;;;;;;;;17.30;99.10;;;;;;4985840;28;19989;-82
2022/08/20 06:28:02;;;;;;;;;;;17.30;99.20;;;;;;5005824;28;20176;-82
2022/08/20 06:30:29;;;;;;;;;;;17.30;99.20;;;;;;5009618;28;19930;-81
2022/08/20 06:32:56;;;;;;;;;;;17.30;99.20;;;;;;5006838;28;19953;-81
2022/08/20 06:35:24;;;;;;;;;;;17.30;99.20;;;;;;5002475;28;19925;-82
2022/08/20 06:37:52;;;;;;;;;;;17.30;99.20;;;;;;4991959;28;19973;-82
2022/08/20 06:40:19;;;;;;;;;;;17.30;99.30;;;;;;4984472;28;19974;-82
2022/08/20 06:42:46;;;;;;;;;;;17.30;99.40;;;;;;5008327;28;19933;-81
2022/08/20 06:45:15;;;;;;;;;;;17.30;99.50;;;;;;5003187;28;19925;-82
2022/08/20 06:47:42;;;;;;;;;;;17.30;99.50;;;;;;5013882;28;19933;-82
2022/08/20 06:50:09;;;;;;;;;;;17.30;99.50;;;;;;5003756;28;19968;-82
2022/08/20 06:52:38;;;;;;;;;;;17.30;99.60;;;;;;4995254;28;19945;-82
2022/08/20 06:55:06;;;;;;;;;;;17.30;99.60;;;;;;4989315;28;19925;-82
2022/08/20 06:57:33;;;;;;;;;;;17.30;99.70;;;;;;4991668;28;20012;-82
2022/08/20 07:00:00;;;;;;;;;;;17.30;99.70;;;;;;4983136;28;19991;-81
2022/08/20 07:02:27;;;;;;;;;;;17.30;99.70;;;;;;4992457;28;19929;-82
2022/08/20 07:04:54;;;;;;;;;;;17.30;99.70;;;;;;5006671;28;19933;-82
2022/08/20 07:07:21;;;;;;;;;;;17.30;99.70;;;;;;4982515;28;20393;-82
2022/08/20 07:09:49;;;;;;;;;;;17.30;99.70;;;;;;4989220;28;19976;-82
2022/08/20 07:12:16;;;;;;;;;;;17.30;99.60;;;;;;5002075;28;19930;-82
2022/08/20 07:14:43;;;;;;;;;;;17.30;99.60;;;;;;5006912;28;19934;-82
2022/08/20 07:17:10;;;;;;;;;;;17.30;99.60;;;;;;4986477;28;19954;-82
2022/08/20 07:19:37;;;;;;;;;;;17.30;99.60;;;;;;5004323;28;19926;-82
2022/08/20 07:22:04;;;;;;;;;;;17.30;99.70;;;;;;4996985;28;19964;-81
2022/08/20 07:24:31;;;;;;;;;;;17.30;99.80;;;;;;5007334;28;19925;-82
2022/08/20 07:27:00;;;;;;;;;;;17.40;99.90;;;;;;5002826;28;20012;-82
2022/08/20 07:32:33;;;;;;;;;;;17.30;99.90;;;;;;4992880;28;19926;-81
2022/08/20 07:34:58;;;;;;;;;;;17.40;99.90;;;;;;5000634;28;19932;-81
2022/08/20 07:37:25;;;;;;;;;;;17.40;99.90;;;;;;5003128;28;19981;-82
2022/08/20 07:39:52;;;;;;;;;;;17.50;99.90;;;;;;4997661;28;20020;-82
2022/08/20 07:42:20;;;;;;;;;;;17.50;99.90;;;;;;4987577;28;19936;-80
2022/08/20 07:44:47;;;;;;;;;;;17.50;99.90;;;;;;5009058;28;20583;-81
2022/08/20 07:47:17;;;;;;;;;;;17.60;99.90;;;;;;5005200;28;19934;-81
2022/08/20 07:49:44;;;;;;;;;;;17.60;99.90;;;;;;4982782;28;19933;-82
2022/08/20 07:52:12;;;;;;;;;;;17.60;99.90;;;;;;5002917;28;19926;-82
2022/08/20 07:54:38;;;;;;;;;;;17.60;99.90;;;;;;4987263;28;20032;-81
2022/08/20 07:57:05;;;;;;;;;;;17.60;99.90;;;;;;5007482;28;20008;-81
2022/08/20 07:59:33;;;;;;;;;;;17.70;99.90;;;;;;5006550;28;19967;-82
2022/08/20 08:02:00;;;;;;;;;;;17.70;99.90;;;;;;5004216;28;19929;-82
2022/08/20 08:04:27;;;;;;;;;;;17.70;99.90;;;;;;5002722;28;19988;-81
2022/08/20 08:06:58;;;;;;;;;;;17.70;99.90;;;;;;5002331;28;19952;-82
2022/08/20 08:09:26;;;;;;;;;;;17.70;99.90;;;;;;5000324;28;20435;-82
2022/08/20 08:11:56;;;;;;;;;;;17.80;99.90;;;;;;4981577;28;19930;-82
2022/08/20 08:14:25;;;;;;;;;;;17.80;99.90;;;;;;4999039;28;19949;-82
2022/08/20 08:16:56;;;;;;;;;;;17.80;99.90;;;;;;4984846;28;19926;-82
2022/08/20 08:19:23;;;;;;;;;;;17.80;99.90;;;;;;5011960;28;19932;-82
2022/08/20 08:21:50;;;;;;;;;;;17.80;99.90;;;;;;5005425;28;19926;-82
2022/08/20 08:24:18;;;;;;;;;;;17.80;99.90;;;;;;4997085;28;19929;-81
2022/08/20 08:26:45;;;;;;;;;;;17.90;99.90;;;;;;4989294;28;20334;-82
2022/08/20 08:29:12;;;;;;;;;;;17.90;99.90;;;;;;5006328;28;20016;-81
2022/08/20 08:31:39;;;;;;;;;;;17.90;99.90;;;;;;4998641;28;19973;-82
2022/08/20 08:34:08;;;;;;;;;;;17.90;99.90;;;;;;5000390;28;19926;-82
2022/08/20 08:36:34;;;;;;;;;;;17.90;99.90;;;;;;5011735;28;19933;-82
2022/08/20 08:39:01;;;;;;;;;;;17.90;99.90;;;;;;5007965;28;20347;-82
2022/08/20 08:41:30;;;;;;;;;;;18.00;99.90;;;;;;4999419;28;19930;-82
2022/08/20 08:43:59;;;;;;;;;;;18.00;99.90;;;;;;5006511;28;19932;-82
2022/08/20 08:46:27;;;;;;;;;;;18.00;99.90;;;;;;5005416;28;20434;-81
2022/08/20 08:48:56;;;;;;;;;;;18.10;99.90;;;;;;4989045;28;19929;-82
2022/08/20 08:51:28;;;;;;;;;;;18.10;99.90;;;;;;5000240;28;19934;-82
2022/08/20 08:53:55;;;;;;;;;;;18.10;99.90;;;;;;5012936;28;19929;-82
2022/08/20 08:56:23;;;;;;;;;;;18.20;99.90;;;;;;4998007;28;19926;-82
2022/08/20 08:58:50;;;;;;;;;;;18.20;99.90;;;;;;5008557;28;20322;-82
2022/08/20 09:01:20;;;;;;;;;;;18.20;99.90;;;;;;5002190;28;19925;-82
2022/08/20 09:03:48;;;;;;;;;;;18.20;99.90;;;;;;5000963;28;19926;-82
2022/08/20 09:06:17;;;;;;;;;;;18.20;99.90;;;;;;5003231;28;20401;-81
2022/08/20 09:08:47;;;;;;;;;;;18.30;99.90;;;;;;5003213;28;19929;-82
2022/08/20 09:11:15;;;;;;;;;;;18.30;99.90;;;;;;5009428;28;19973;-82
2022/08/20 09:13:43;;;;;;;;;;;18.30;99.90;;;;;;4988587;28;19989;-81
2022/08/20 09:16:10;;;;;;;;;;;18.30;99.90;;;;;;5011641;28;20383;-81
2022/08/20 09:18:37;;;;;;;;;;;18.40;99.90;;;;;;4999896;28;19949;-82
2022/08/20 09:21:05;;;;;;;;;;;18.40;99.90;;;;;;4991856;28;19932;-82
2022/08/20 09:23:32;;;;;;;;;;;18.40;99.90;;;;;;5006884;28;19971;-81
2022/08/20 09:26:00;;;;;;;;;;;18.40;99.90;;;;;;4983783;28;19933;-82
2022/08/20 09:28:27;;;;;;;;;;;18.40;99.90;;;;;;5007272;28;19929;-82
2022/08/20 09:30:54;;;;;;;;;;;18.50;99.90;;;;;;4996105;28;19964;-82
2022/08/20 09:33:21;;;;;;;;;;;18.50;99.90;;;;;;5001145;28;19968;-82
2022/08/20 09:35:48;;;;;;;;;;;18.50;99.90;;;;;;5000866;28;19960;-82
2022/08/20 09:38:15;;;;;;;;;;;18.50;99.90;;;;;;5003049;28;19932;-84
2022/08/20 09:40:41;;;;;;;;;;;18.60;99.90;;;;;;5007504;28;20005;-84
2022/08/20 09:43:10;;;;;;;;;;;18.60;99.90;;;;;;4995952;28;20024;-84
2022/08/20 09:45:37;;;;;;;;;;;18.60;99.90;;;;;;5001489;28;19930;-84
2022/08/20 09:48:04;;;;;;;;;;;18.60;99.90;;;;;;4982451;28;19972;-85
2022/08/20 09:50:33;;;;;;;;;;;18.60;99.90;;;;;;4997842;28;20412;-84
2022/08/20 09:53:01;;;;;;;;;;;18.60;99.90;;;;;;5005453;28;19949;-82
2022/08/20 09:55:31;;;;;;;;;;;18.70;99.90;;;;;;5009089;28;19932;-82
2022/08/20 09:57:59;;;;;;;;;;;18.70;99.90;;;;;;4998959;28;19929;-82
2022/08/20 10:00:27;;;;;;;;;;;18.70;99.90;;;;;;4989605;28;19965;-82
2022/08/20 10:02:54;;;;;;;;;;;18.70;99.90;;;;;;4986189;28;19926;-82
2022/08/20 10:05:21;;;;;;;;;;;18.80;99.90;;;;;;5010842;28;19925;-82
2022/08/20 10:07:48;;;;;;;;;;;18.80;99.90;;;;;;4998959;28;19925;-82
2022/08/20 10:10:15;;;;;;;;;;;18.80;99.90;;;;;;5010756;28;20399;-81
2022/08/20 10:12:42;;;;;;;;;;;18.80;99.90;;;;;;4984855;28;19979;-81
2022/08/20 10:15:10;;;;;;;;;;;18.80;99.90;;;;;;4990139;28;20017;-83
2022/08/20 10:17:39;;;;;;;;;;;18.90;99.90;;;;;;5005355;28;19937;-82
2022/08/20 10:20:07;;;;;;;;;;;18.90;99.90;;;;;;5003328;28;19930;-82
2022/08/20 10:22:34;;;;;;;;;;;18.90;99.90;;;;;;5007029;28;19925;-83
2022/08/20 10:25:01;;;;;;;;;;;19.00;99.90;;;;;;5005107;28;19925;-82
2022/08/20 10:27:28;;;;;;;;;;;19.00;99.90;;;;;;5002369;28;19926;-82
2022/08/20 10:29:55;;;;;;;;;;;19.00;99.90;;;;;;5006079;28;19929;-81
2022/08/20 10:32:22;;;;;;;;;;;19.00;99.90;;;;;;5002440;28;19925;-82
2022/08/20 10:34:50;;;;;;;;;;;19.10;99.90;;;;;;4999993;28;19926;-81
2022/08/20 10:37:18;;;;;;;;;;;19.10;99.90;;;;;;4993292;28;19933;-82
2022/08/20 10:39:45;;;;;;;;;;;19.10;99.90;;;;;;4981794;28;19930;-82
2022/08/20 10:42:12;;;;;;;;;;;19.10;99.90;;;;;;5000942;28;19934;-82
2022/08/20 10:44:39;;;;;;;;;;;19.10;99.90;;;;;;5007776;28;19925;-81
2022/08/20 10:47:16;;;;;;;;;;;19.20;99.90;;;;;;4984153;28;20411;-82
2022/08/20 10:49:44;;;;;;;;;;;19.20;99.90;;;;;;4988635;28;20310;-82
2022/08/20 10:52:12;;;;;;;;;;;19.20;99.90;;;;;;4994763;28;19930;-82
2022/08/20 10:54:41;;;;;;;;;;;19.20;99.90;;;;;;5001632;28;19926;-82
2022/08/20 10:57:08;;;;;;;;;;;19.30;99.90;;;;;;5003689;28;20404;-82
2022/08/20 10:59:37;;;;;;;;;;;19.30;99.90;;;;;;5001327;28;19976;-82
2022/08/20 11:02:04;;;;;;;;;;;19.30;99.90;;;;;;5005404;28;20344;-82
2022/08/20 11:04:31;;;;;;;;;;;19.30;99.90;;;;;;5003069;28;19933;-82
2022/08/20 11:06:58;;;;;;;;;;;19.40;99.90;;;;;;5004846;28;19933;-82
2022/08/20 11:09:28;;;;;;;;;;;19.40;99.90;;;;;;5001722;28;20422;-82
2022/08/20 11:11:55;;;;;;;;;;;19.40;99.90;;;;;;5009342;28;20355;-82
2022/08/20 11:14:22;;;;;;;;;;;19.50;99.90;;;;;;5008989;28;19933;-82
2022/08/20 11:16:48;;;;;;;;;;;19.50;99.90;;;;;;5010635;28;21055;-82
2022/08/20 11:19:15;;;;;;;;;;;19.50;99.90;;;;;;5003504;28;19926;-82
2022/08/20 11:21:42;;;;;;;;;;;19.50;99.90;;;;;;4997835;28;19925;-81
2022/08/20 11:24:09;;;;;;;;;;;19.50;99.90;;;;;;5010691;28;19926;-82
2022/08/20 11:26:37;;;;;;;;;;;19.60;99.90;;;;;;5005055;28;19933;-82
2022/08/20 11:29:04;;;;;;;;;;;19.60;99.90;;;;;;5008419;28;19972;-82
2022/08/20 11:31:31;;;;;;;;;;;19.60;99.90;;;;;;5012869;28;19980;-82
2022/08/20 11:33:58;;;;;;;;;;;19.60;99.90;;;;;;5010312;28;20278;-82
2022/08/20 11:36:25;;;;;;;;;;;19.70;99.90;;;;;;5006217;28;19926;-82
2022/08/20 11:38:52;;;;;;;;;;;19.70;99.90;;;;;;4984294;28;19926;-82
2022/08/20 11:41:19;;;;;;;;;;;19.70;99.90;;;;;;5005911;28;19925;-82
2022/08/20 11:43:47;;;;;;;;;;;19.70;99.90;;;;;;4995052;28;20694;-81
2022/08/20 11:46:14;;;;;;;;;;;19.70;99.90;;;;;;5009349;28;19925;-82
2022/08/20 11:48:40;;;;;;;;;;;19.80;99.90;;;;;;5011794;28;19965;-82
2022/08/20 11:51:07;;;;;;;;;;;19.70;99.90;;;;;;5007898;28;19933;-82
2022/08/20 11:53:34;;;;;;;;;;;19.80;99.90;;;;;;5002339;28;19949;-82
2022/08/20 11:56:01;;;;;;;;;;;19.80;99.90;;;;;;5010922;28;19957;-82
2022/08/20 11:58:28;;;;;;;;;;;19.80;99.90;;;;;;5007804;28;19938;-82
2022/08/20 12:00:56;;;;;;;;;;;19.80;99.90;;;;;;4996254;28;20185;-82
2022/08/20 12:03:23;;;;;;;;;;;19.80;99.90;;;;;;5012628;28;19932;-82
2022/08/20 12:05:50;;;;;;;;;;;19.90;99.90;;;;;;5005645;28;20277;-82
2022/08/20 12:08:17;;;;;;;;;;;19.90;99.90;;;;;;5007728;28;20415;-82
2022/08/20 12:10:43;;;;;;;;;;;19.90;99.90;;;;;;4993222;28;19956;-83
2022/08/20 12:13:10;;;;;;;;;;;19.90;99.90;;;;;;4988284;28;19925;-82
2022/08/20 12:15:37;;;;;;;;;;;19.90;99.90;;;;;;5009827;28;19932;-82
2022/08/20 12:18:07;;;;;;;;;;;19.90;99.90;;;;;;4986310;28;19925;-82
2022/08/20 12:20:34;;;;;;;;;;;19.90;99.90;;;;;;5005066;28;20119;-82
2022/08/20 12:23:02;;;;;;;;;;;19.90;99.90;;;;;;4998145;28;19975;-82
2022/08/20 12:25:29;;;;;;;;;;;20.00;99.90;;;;;;5008482;28;20324;-82
2022/08/20 12:27:56;;;;;;;;;;;20.00;99.90;;;;;;5006367;28;19926;-82
2022/08/20 12:30:23;;;;;;;;;;;20.00;99.80;;;;;;5005551;28;19949;-82
2022/08/20 12:32:50;;;;;;;;;;;19.90;99.70;;;;;;5012653;28;19926;-82
2022/08/20 12:35:19;;;;;;;;;;;20.00;99.70;;;;;;5004855;28;19933;-82
2022/08/20 12:37:46;;;;;;;;;;;20.00;99.60;;;;;;5015091;28;19932;-82
2022/08/20 12:40:14;;;;;;;;;;;20.00;99.60;;;;;;5008599;28;19926;-83
2022/08/20 12:42:41;;;;;;;;;;;20.00;99.60;;;;;;5009949;28;19941;-82
2022/08/20 12:45:08;;;;;;;;;;;20.00;99.50;;;;;;4996487;28;19941;-82
2022/08/20 12:47:36;;;;;;;;;;;20.00;99.50;;;;;;5010052;28;19963;-82
2022/08/20 12:50:05;;;;;;;;;;;19.90;99.70;;;;;;5012965;28;19937;-81
2022/08/20 12:52:33;;;;;;;;;;;20.00;99.60;;;;;;5012282;28;20427;-82
2022/08/20 12:55:01;;;;;;;;;;;20.00;99.60;;;;;;4993228;28;19933;-81
2022/08/20 12:57:29;;;;;;;;;;;19.90;99.60;;;;;;5006852;28;20315;-82
2022/08/20 12:59:56;;;;;;;;;;;20.00;99.70;;;;;;5008495;28;19949;-82
2022/08/20 13:02:23;;;;;;;;;;;19.90;99.80;;;;;;5004064;28;20036;-81
2022/08/20 13:04:50;;;;;;;;;;;19.90;99.80;;;;;;5010098;28;19948;-82
2022/08/20 13:07:17;;;;;;;;;;;19.90;99.80;;;;;;4982582;28;20004;-82
2022/08/20 13:09:45;;;;;;;;;;;19.90;99.80;;;;;;5003046;28;19934;-82
2022/08/20 13:12:13;;;;;;;;;;;19.90;99.90;;;;;;4987049;28;19925;-82
2022/08/20 13:14:40;;;;;;;;;;;19.90;99.90;;;;;;5002114;28;19964;-82
2022/08/20 13:17:07;;;;;;;;;;;19.90;99.90;;;;;;5008250;28;19980;-82
2022/08/20 13:19:36;;;;;;;;;;;19.90;99.90;;;;;;4987587;28;19929;-82
2022/08/20 13:22:03;;;;;;;;;;;19.90;99.90;;;;;;4990921;28;19981;-82
2022/08/20 13:24:30;;;;;;;;;;;19.90;99.90;;;;;;5004069;28;20112;-82
2022/08/20 13:27:04;;;;;;;;;;;19.90;99.90;;;;;;4990865;28;19931;-82
2022/08/20 13:29:31;;;;;;;;;;;19.90;99.90;;;;;;5008368;28;20446;-82
2022/08/20 13:31:58;;;;;;;;;;;19.90;99.90;;;;;;4993942;28;19930;-82
2022/08/20 13:34:25;;;;;;;;;;;19.90;99.90;;;;;;5008563;28;20281;-82
2022/08/20 13:36:54;;;;;;;;;;;19.90;99.90;;;;;;5006527;28;19944;-81
2022/08/20 13:39:21;;;;;;;;;;;19.90;99.90;;;;;;5006014;28;19929;-81
2022/08/20 13:41:48;;;;;;;;;;;19.90;99.90;;;;;;5011199;28;19929;-81
2022/08/20 13:44:17;;;;;;;;;;;19.90;99.90;;;;;;4991217;28;19936;-81
2022/08/20 13:46:45;;;;;;;;;;;19.90;99.90;;;;;;4990389;28;19932;-80
2022/08/20 13:49:12;;;;;;;;;;;19.90;99.90;;;;;;5008959;28;19925;-80
2022/08/20 13:51:39;;;;;;;;;;;19.90;99.90;;;;;;5010172;28;19989;-81
2022/08/20 13:54:06;;;;;;;;;;;19.90;99.90;;;;;;4996335;28;19926;-80
2022/08/20 13:56:33;;;;;;;;;;;19.90;99.90;;;;;;5005083;28;20063;-82
2022/08/20 13:59:00;;;;;;;;;;;19.90;99.90;;;;;;5000462;28;20293;-81
2022/08/20 14:01:28;;;;;;;;;;;19.90;99.90;;;;;;5008344;28;19929;-82
2022/08/20 14:03:55;;;;;;;;;;;19.90;99.90;;;;;;5000740;28;19929;-81
2022/08/20 14:06:22;;;;;;;;;;;19.90;99.90;;;;;;5002524;28;20382;-82
2022/08/20 14:08:48;;;;;;;;;;;19.90;99.90;;;;;;5003135;28;19929;-81
2022/08/20 14:11:15;;;;;;;;;;;19.90;99.90;;;;;;5001455;28;20383;-81
2022/08/20 14:13:42;;;;;;;;;;;19.90;99.90;;;;;;5001091;28;19933;-81
2022/08/20 14:16:09;;;;;;;;;;;19.90;99.90;;;;;;5012424;28;19985;-82
2022/08/20 14:18:37;;;;;;;;;;;19.90;99.90;;;;;;4999581;28;20461;-81
2022/08/20 14:21:04;;;;;;;;;;;20.00;99.90;;;;;;5007954;28;19956;-81
2022/08/20 14:23:31;;;;;;;;;;;20.00;99.90;;;;;;5002472;28;19952;-81